createdAt,value
2022-08-27T00:02:24.857Z,100274.22
2022-08-27T00:04:54.193Z,100274.31
2022-08-27T00:07:23.153Z,100277.00
2022-08-27T00:09:51.844Z,100048.19
2022-08-27T00:12:20.635Z,100286.59
2022-08-27T00:14:49.821Z,100265.41
2022-08-27T00:17:18.971Z,100274.72
2022-08-27T00:19:49.386Z,100264.75
2022-08-27T00:22:18.314Z,100268.50
2022-08-27T00:24:48.675Z,100271.16
2022-08-27T00:27:19.120Z,100272.72
2022-08-27T00:29:48.209Z,100268.97
2022-08-27T00:32:17.912Z,100273.28
2022-08-27T00:34:48.484Z,100262.56
2022-08-27T00:37:17.687Z,100264.28
2022-08-27T00:39:46.641Z,100278.47
2022-08-27T00:42:18.029Z,100283.84
2022-08-27T00:44:47.268Z,100283.63
2022-08-27T00:47:27.349Z,100229.03
2022-08-27T00:50:04.176Z,100150.06
2022-08-27T00:52:37.900Z,100294.81
2022-08-27T00:55:13.056Z,100224.91
2022-08-27T00:57:45.139Z,100290.31
2022-08-27T01:00:18.278Z,100282.94
2022-08-27T01:02:48.503Z,100281.88
2022-08-27T01:05:25.569Z,100273.81
2022-08-27T01:07:58.985Z,100266.16
2022-08-27T01:10:30.946Z,100245.06
2022-08-27T01:13:02.246Z,100266.06
2022-08-27T01:15:32.897Z,100262.81
2022-08-27T01:18:04.176Z,100263.09
2022-08-27T01:20:57.057Z,100253.50
2022-08-27T01:23:37.466Z,100258.00
2022-08-27T01:26:09.689Z,100260.09
2022-08-27T01:28:39.241Z,100264.78
2022-08-27T01:31:12.799Z,100155.25
2022-08-27T01:33:42.299Z,100258.06
2022-08-27T01:36:11.246Z,100252.69
2022-08-27T01:38:40.299Z,100248.09
2022-08-27T01:41:15.255Z,100241.66
2022-08-27T01:43:53.743Z,100241.66
2022-08-27T01:46:24.182Z,100236.22
2022-08-27T01:48:53.648Z,100232.47
2022-08-27T01:51:23.300Z,100180.84
2022-08-27T01:53:53.295Z,100238.03
2022-08-27T01:56:23.643Z,100229.25
2022-08-27T01:58:52.523Z,100232.88
2022-08-27T02:01:21.615Z,100225.78
2022-08-27T02:03:50.508Z,100225.78
2022-08-27T02:06:19.743Z,100216.97
2022-08-27T02:08:48.708Z,100216.97
2022-08-27T02:11:19.582Z,100224.22
2022-08-27T02:13:49.970Z,100220.81
2022-08-27T02:16:19.404Z,100220.91
2022-08-27T02:18:54.458Z,100220.13
2022-08-27T02:21:25.095Z,100144.22
2022-08-27T02:23:55.159Z,100219.44
2022-08-27T02:26:24.636Z,100224.78
2022-08-27T02:28:55.036Z,100221.38
2022-08-27T02:31:24.539Z,100222.31
2022-08-27T02:33:53.525Z,100221.53
2022-08-27T02:36:22.493Z,100226.81
2022-08-27T02:38:51.696Z,100218.78
2022-08-27T02:41:20.486Z,100186.94
2022-08-27T02:43:49.384Z,100220.59
2022-08-27T02:46:20.571Z,100218.88
2022-08-27T02:48:49.779Z,100217.22
2022-08-27T02:51:18.638Z,100220.84
2022-08-27T02:53:48.350Z,100193.47
2022-08-27T02:56:21.719Z,100214.84
2022-08-27T02:58:51.146Z,100220.28
2022-08-27T03:01:21.150Z,100215.09
2022-08-27T03:03:50.202Z,100216.25
2022-08-27T03:06:19.206Z,100222.75
2022-08-27T03:08:53.003Z,100221.22
2022-08-27T03:11:24.539Z,100215.94
2022-08-27T03:13:54.213Z,100228.50
2022-08-27T03:16:24.915Z,100227.81
2022-08-27T03:18:53.170Z,100225.59
2022-08-27T03:21:25.790Z,100229.41
2022-08-27T03:23:55.003Z,100228.06
2022-08-27T03:26:24.121Z,100230.31
2022-08-27T03:28:53.098Z,100234.09
2022-08-27T03:31:27.768Z,100241.81
2022-08-27T03:33:59.925Z,100233.31
2022-08-27T03:36:31.132Z,100136.38
2022-08-27T03:39:00.514Z,100239.47
2022-08-27T03:41:43.831Z,100242.59
2022-08-27T03:44:21.591Z,100248.34
2022-08-27T03:46:52.756Z,100244.34
2022-08-27T03:49:23.398Z,100243.09
2022-08-27T03:51:54.242Z,100241.97
2022-08-27T03:54:23.410Z,100245.38
2022-08-27T03:56:52.781Z,100243.47
2022-08-27T03:59:21.688Z,100251.34
2022-08-27T04:01:52.273Z,100252.88
2022-08-27T04:04:21.929Z,100250.69
2022-08-27T04:06:51.101Z,100255.06
2022-08-27T04:09:20.170Z,100257.59
2022-08-27T04:12:06.077Z,100258.34
2022-08-27T04:14:42.821Z,100255.59
2022-08-27T04:17:15.479Z,100261.66
2022-08-27T04:19:44.419Z,100258.78
2022-08-27T04:22:15.010Z,100258.69
2022-08-27T04:24:45.358Z,100262.31
2022-08-27T04:27:16.188Z,100263.19
2022-08-27T04:29:46.822Z,100262.16
2022-08-27T04:32:18.094Z,100261.94
2022-08-27T04:34:47.134Z,100261.75
2022-08-27T04:37:15.978Z,100266.16
2022-08-27T04:39:54.416Z,100267.69
2022-08-27T04:42:23.777Z,100265.69
2022-08-27T04:44:53.835Z,100273.75
2022-08-27T04:47:24.576Z,100266.63
2022-08-27T04:49:53.626Z,100267.50
2022-08-27T04:52:22.608Z,100270.75
2022-08-27T04:54:52.078Z,100267.09
2022-08-27T04:57:21.158Z,100260.78
2022-08-27T04:59:50.871Z,100260.78
2022-08-27T05:02:20.051Z,100261.47
2022-08-27T05:04:53.345Z,100255.69
2022-08-27T05:07:22.378Z,100249.56
2022-08-27T05:09:52.279Z,100253.31
2022-08-27T05:12:21.360Z,100250.03
2022-08-27T05:14:50.368Z,100253.41
2022-08-27T05:17:20.076Z,100247.09
2022-08-27T05:19:54.124Z,100251.38
2022-08-27T05:22:23.968Z,100253.78
2022-08-27T05:24:54.824Z,100247.81
2022-08-27T05:27:25.004Z,100259.94
2022-08-27T05:29:54.784Z,100261.25
2022-08-27T05:32:27.967Z,100263.53
2022-08-27T05:34:58.442Z,100258.63
2022-08-27T05:37:34.608Z,100252.88
2022-08-27T05:40:11.770Z,100250.34
2022-08-27T05:42:42.823Z,100245.06
2022-08-27T05:45:18.589Z,100242.50
2022-08-27T05:47:49.007Z,100247.69
2022-08-27T05:50:23.470Z,100249.75
2022-08-27T05:52:54.804Z,100242.91
2022-08-27T05:55:24.949Z,100215.31
2022-08-27T05:57:53.996Z,100257.97
2022-08-27T06:00:40.016Z,100263.13
2022-08-27T06:03:13.029Z,100271.00
2022-08-27T06:05:43.592Z,100267.34
2022-08-27T06:08:12.698Z,100274.44
2022-08-27T06:10:43.133Z,100281.56
2022-08-27T06:13:13.896Z,100285.19
2022-08-27T06:15:43.156Z,100297.88
2022-08-27T06:18:14.830Z,100296.16
2022-08-27T06:20:45.339Z,100295.00
2022-08-27T06:23:14.768Z,100299.00
2022-08-27T06:25:45.664Z,100303.50
2022-08-27T06:28:18.205Z,100313.94
2022-08-27T06:30:48.535Z,100309.91
2022-08-27T06:33:17.617Z,100315.03
2022-08-27T06:35:49.447Z,100309.00
2022-08-27T06:38:18.410Z,100303.53
2022-08-27T06:40:47.002Z,100260.56
2022-08-27T06:43:15.921Z,100302.69
2022-08-27T06:45:44.786Z,100294.13
2022-08-27T06:48:13.400Z,100278.44
2022-08-27T06:50:44.663Z,100290.56
2022-08-27T06:53:15.502Z,100291.66
2022-08-27T06:55:45.616Z,100285.97
2022-08-27T06:58:15.671Z,100294.94
2022-08-27T07:00:49.132Z,100292.91
2022-08-27T07:03:18.205Z,100285.38
2022-08-27T07:05:55.156Z,100285.59
2022-08-27T07:08:30.456Z,100285.31
2022-08-27T07:10:59.548Z,100287.88
2022-08-27T07:13:30.870Z,100205.94
2022-08-27T07:16:00.241Z,100269.16
2022-08-27T07:18:29.366Z,100264.50
2022-08-27T07:20:58.067Z,100238.69
2022-08-27T07:23:28.687Z,100188.88
2022-08-27T07:25:57.556Z,100250.72
2022-08-27T07:28:26.659Z,100252.19
2022-08-27T07:30:56.458Z,100258.53
2022-08-27T07:33:25.327Z,100132.63
2022-08-27T07:35:55.801Z,100242.16
2022-08-27T07:38:27.099Z,100245.06
2022-08-27T07:40:57.524Z,100242.44
2022-08-27T07:43:46.657Z,100242.44
2022-08-27T07:46:15.733Z,100237.22
2022-08-27T07:48:56.599Z,100236.59
2022-08-27T07:51:27.854Z,100243.50
2022-08-27T07:53:58.864Z,100247.13
2022-08-27T07:56:34.708Z,100255.81
2022-08-27T07:59:05.618Z,100261.34
2022-08-27T08:01:42.079Z,100256.66
2022-08-27T08:04:11.407Z,100260.53
2022-08-27T08:06:46.228Z,100265.69
2022-08-27T08:09:19.942Z,100270.81
2022-08-27T08:11:50.405Z,100269.13
2022-08-27T08:14:21.788Z,100273.75
2022-08-27T08:16:51.090Z,100273.63
2022-08-27T08:19:28.802Z,100273.97
2022-08-27T08:22:06.201Z,100280.44
2022-08-27T08:24:36.691Z,100280.56
2022-08-27T08:27:07.965Z,100280.19
2022-08-27T08:29:42.881Z,100277.06
2022-08-27T08:32:17.677Z,100275.41
2022-08-27T08:34:51.531Z,100280.09
2022-08-27T08:37:22.544Z,100283.00
2022-08-27T08:39:51.738Z,100281.00
2022-08-27T08:42:35.919Z,100173.25
2022-08-27T08:45:08.567Z,100214.59
2022-08-27T08:47:49.460Z,100248.34
2022-08-27T08:50:28.506Z,100221.66
2022-08-27T08:53:15.472Z,100305.63
2022-08-27T08:55:59.011Z,100312.31
2022-08-27T08:58:42.659Z,100197.19
2022-08-27T09:01:12.893Z,100305.44
2022-08-27T09:03:49.009Z,100309.59
2022-08-27T09:06:31.208Z,100313.38
2022-08-27T09:09:20.659Z,100284.78
2022-08-27T09:12:01.052Z,100314.56
2022-08-27T09:14:39.943Z,100295.97
2022-08-27T09:17:11.457Z,100321.53
2022-08-27T09:19:41.577Z,100321.97
2022-08-27T09:22:24.352Z,100251.38
2022-08-27T09:25:08.531Z,100231.63
2022-08-27T09:27:42.161Z,100197.59
2022-08-27T09:30:20.811Z,100263.66
2022-08-27T09:32:57.045Z,100324.34
2022-08-27T09:35:35.912Z,100328.28
2022-08-27T09:38:05.615Z,100330.50
2022-08-27T09:40:40.462Z,100328.66
2022-08-27T09:43:22.560Z,100333.94
2022-08-27T09:45:57.886Z,100236.13
2022-08-27T09:48:29.718Z,100264.16
2022-08-27T10:02:24.600Z,100324.94
2022-08-27T10:04:55.480Z,100330.69
2022-08-27T10:07:45.047Z,100332.44
2022-08-27T10:10:20.827Z,100336.13
2022-08-27T10:12:55.266Z,100334.16
2022-08-27T10:15:29.631Z,100336.25
2022-08-27T10:18:11.357Z,100338.56
2022-08-27T10:20:51.381Z,100336.63
2022-08-27T10:23:30.130Z,100336.16
2022-08-27T10:26:11.911Z,100336.91
2022-08-27T10:28:54.223Z,100335.78
2022-08-27T10:31:34.275Z,100335.81
2022-08-27T10:34:17.758Z,100341.19
2022-08-27T10:36:58.932Z,100337.81
2022-08-27T10:39:45.544Z,100341.31
2022-08-27T10:42:22.942Z,100346.50
2022-08-27T10:45:03.731Z,100338.13
2022-08-27T10:47:50.811Z,100345.75
2022-08-27T10:50:29.737Z,100345.72
2022-08-27T10:53:03.581Z,100354.13
2022-08-27T10:55:34.918Z,100350.19
2022-08-27T10:58:36.507Z,100354.19
2022-08-27T11:01:14.143Z,100353.09
2022-08-27T11:03:49.259Z,100362.50
2022-08-27T11:06:26.253Z,100360.44
2022-08-27T11:09:01.416Z,100358.59
2022-08-27T11:12:13.885Z,100357.56
2022-08-27T11:14:37.693Z,100361.66
2022-08-27T11:17:17.984Z,100358.00
2022-08-27T11:19:54.923Z,100363.25
2022-08-27T11:22:31.024Z,100348.59
2022-08-27T11:25:10.543Z,100354.19
2022-08-27T11:27:41.086Z,100353.94
2022-08-27T11:30:18.114Z,100341.66
2022-08-27T11:32:58.471Z,100352.59
2022-08-27T11:35:37.134Z,100354.22
2022-08-27T11:38:25.475Z,100345.97
2022-08-27T11:41:12.820Z,100351.31
2022-08-27T11:43:45.791Z,100353.69
2022-08-27T11:46:25.969Z,100349.72
2022-08-27T11:49:03.010Z,100357.97
2022-08-27T11:51:35.237Z,100351.09
2022-08-27T11:54:08.339Z,100342.56
2022-08-27T11:56:43.402Z,100336.13
2022-08-27T11:59:22.059Z,100334.06
2022-08-27T12:01:54.046Z,100332.03
2022-08-27T12:04:35.322Z,100328.97
2022-08-27T12:07:07.191Z,100328.09
2022-08-27T12:09:58.169Z,100322.47
2022-08-27T12:12:36.376Z,100320.72
2022-08-27T12:15:09.877Z,100320.69
2022-08-27T12:17:44.140Z,100317.97
2022-08-27T12:20:25.447Z,100322.09
2022-08-27T12:23:39.750Z,100330.97
2022-08-27T12:26:24.334Z,100321.34
2022-08-27T12:28:56.910Z,100313.50
2022-08-27T12:31:26.287Z,100310.88
2022-08-27T12:33:56.544Z,100313.13
2022-08-27T12:36:29.466Z,100313.66
2022-08-27T12:39:00.595Z,100319.53
2022-08-27T12:41:43.783Z,100313.25
2022-08-27T12:44:17.021Z,100313.75
2022-08-27T12:46:50.073Z,100318.09
2022-08-27T12:49:38.006Z,100319.09
2022-08-27T12:52:21.288Z,100317.47
2022-08-27T12:55:06.058Z,100305.13
2022-08-27T12:57:45.151Z,100308.84
2022-08-27T13:00:19.406Z,100311.97
2022-08-27T13:03:24.447Z,100309.44
2022-08-27T13:05:57.680Z,100303.28
2022-08-27T13:08:41.787Z,100299.56
2022-08-27T13:11:23.662Z,100293.84
2022-08-27T13:14:05.788Z,100307.00
2022-08-27T13:16:40.009Z,100303.16
2022-08-27T13:19:17.602Z,100297.00
2022-08-27T13:21:51.656Z,100294.13
2022-08-27T13:24:39.485Z,100290.13
2022-08-27T13:27:12.178Z,100296.59
2022-08-27T13:29:47.651Z,100294.84
2022-08-27T13:32:18.982Z,100293.22
2022-08-27T13:34:48.666Z,100292.69
2022-08-27T13:37:30.851Z,100296.72
2022-08-27T13:40:00.350Z,100289.59
2022-08-27T13:42:32.250Z,100283.53
2022-08-27T13:45:08.079Z,100281.63
2022-08-27T13:48:00.601Z,100282.47
2022-08-27T13:50:57.951Z,100275.88
2022-08-27T13:57:13.705Z,100275.84
2022-08-27T14:01:25.462Z,100278.84
2022-08-27T14:02:55.786Z,100281.09
2022-08-27T14:05:45.648Z,100170.25
2022-08-27T14:08:19.505Z,100280.63
2022-08-27T14:10:52.830Z,100276.44
2022-08-27T14:13:25.541Z,100278.31
2022-08-27T14:15:56.266Z,100280.13
2022-08-27T14:18:55.122Z,100280.63
2022-08-27T14:21:19.731Z,100281.47
2022-08-27T14:23:48.905Z,100281.00
2022-08-27T14:26:18.536Z,100284.06
2022-08-27T14:28:48.468Z,100287.63
2022-08-27T14:31:18.552Z,100283.34
2022-08-27T14:33:49.312Z,100287.25
2022-08-27T14:36:18.823Z,100285.75
2022-08-27T14:38:54.676Z,100292.53
2022-08-27T14:41:26.816Z,100284.00
2022-08-27T14:43:55.796Z,100283.50
2022-08-27T14:46:30.856Z,100281.78
2022-08-27T14:49:17.143Z,100280.19
2022-08-27T14:51:47.720Z,100278.47
2022-08-27T14:54:18.347Z,100277.34
2022-08-27T14:56:47.471Z,100281.53
2022-08-27T14:59:16.998Z,100281.44
2022-08-27T15:01:46.327Z,100284.47
2022-08-27T15:04:17.446Z,100282.75
2022-08-27T15:06:47.310Z,100285.19
2022-08-27T15:09:20.867Z,100285.72
2022-08-27T15:11:50.620Z,100283.50
2022-08-27T15:14:25.406Z,100285.22
2022-08-27T15:17:34.056Z,100280.69
2022-08-27T15:20:10.222Z,100283.34
2022-08-27T15:22:48.062Z,100283.47
2022-08-27T15:25:18.106Z,100284.09
2022-08-27T15:27:49.744Z,100286.41
2022-08-27T15:30:26.160Z,100291.72
2022-08-27T15:32:56.067Z,100282.50
2022-08-27T15:35:29.167Z,100276.63
2022-08-27T15:37:59.566Z,100279.22
2022-08-27T15:40:48.471Z,100276.50
2022-08-27T15:43:18.753Z,100275.53
2022-08-27T15:45:48.121Z,100274.91
2022-08-27T15:48:17.248Z,100274.19
2022-08-27T15:50:47.907Z,100273.66
2022-08-27T15:53:26.087Z,100275.88
2022-08-27T15:55:56.625Z,100270.38
2022-08-27T15:58:29.100Z,100271.22
2022-08-27T16:01:06.923Z,100270.59
2022-08-27T16:03:41.939Z,100273.63
2022-08-27T16:06:17.503Z,100272.06
2022-08-27T16:08:48.356Z,100271.09
2022-08-27T16:11:17.691Z,100264.81
2022-08-27T16:13:46.977Z,100265.06
2022-08-27T16:16:16.666Z,100270.06
2022-08-27T16:18:46.345Z,100259.88
2022-08-27T16:21:17.318Z,100257.63
2022-08-27T16:23:46.915Z,100263.16
2022-08-27T16:26:16.844Z,100263.16
2022-08-27T17:44:29.805Z,100296.50
2022-08-27T17:47:04.067Z,100313.31
2022-08-27T17:49:33.283Z,100315.69
2022-08-27T17:52:06.356Z,100325.91
2022-08-27T17:54:39.286Z,100326.38
2022-08-27T17:57:17.831Z,100319.50
2022-08-27T17:59:48.456Z,100319.91
2022-08-27T18:02:26.112Z,100321.09
2022-08-27T18:04:55.287Z,100321.31
2022-08-27T18:07:24.336Z,100328.09
2022-08-27T18:09:54.591Z,100328.28
2022-08-27T18:12:27.573Z,100322.13
2022-08-27T18:15:06.911Z,100328.28
2022-08-27T18:17:36.946Z,100330.22
2022-08-27T18:20:07.214Z,100329.78
2022-08-27T18:22:43.363Z,100327.28
2022-08-27T18:25:20.439Z,100336.56
2022-08-27T18:27:53.327Z,100340.28
2022-08-27T18:30:25.095Z,100340.38
2022-08-27T18:32:54.808Z,100338.75
2022-08-27T18:35:26.910Z,100337.03
2022-08-27T18:37:56.245Z,100338.31
2022-08-27T18:40:31.754Z,100335.84
2022-08-27T18:43:03.167Z,100343.13
2022-08-27T18:45:39.746Z,100347.75
2022-08-27T18:48:14.499Z,100346.03
2022-08-27T18:50:46.829Z,100342.78
2022-08-27T18:53:19.916Z,100347.50
2022-08-27T18:55:49.265Z,100350.50
2022-08-27T18:58:18.488Z,100358.34
2022-08-27T19:00:52.344Z,100364.22
2022-08-27T19:03:28.758Z,100356.69
2022-08-27T19:05:58.367Z,100355.81
2022-08-27T19:08:30.006Z,100354.19
2022-08-27T19:10:59.274Z,100348.06
2022-08-27T19:13:28.503Z,100354.41
2022-08-27T19:16:01.991Z,100349.22
2022-08-27T19:18:33.575Z,100345.88
2022-08-27T19:21:02.912Z,100348.78
2022-08-27T19:23:32.623Z,100361.38
2022-08-27T19:26:04.017Z,100361.38
2022-08-27T19:28:39.681Z,100366.53
2022-08-27T19:31:10.367Z,100383.31
2022-08-27T19:33:39.512Z,100378.31
2022-08-27T19:36:14.990Z,100375.53
2022-08-27T19:38:45.838Z,100371.00
2022-08-27T19:41:15.064Z,100378.88
2022-08-27T19:43:44.755Z,100367.69
2022-08-27T19:46:19.844Z,100373.28
2022-08-27T19:48:49.366Z,100377.88
2022-08-27T19:51:19.056Z,100377.16
2022-08-27T19:53:51.264Z,100377.16
2022-08-27T19:56:20.343Z,100376.28
2022-08-27T19:58:52.000Z,100374.66
2022-08-27T20:01:24.597Z,100378.88
2022-08-27T20:03:54.107Z,100375.31
2022-08-27T20:06:28.497Z,100377.16
2022-08-27T20:08:57.379Z,100371.78
2022-08-27T20:11:26.409Z,100370.81
2022-08-27T20:14:01.808Z,100379.72
2022-08-27T20:16:32.160Z,100374.22
2022-08-27T20:19:02.658Z,100385.97
2022-08-27T20:21:31.953Z,100380.56
2022-08-27T20:24:00.971Z,100390.38
2022-08-27T20:26:39.676Z,100392.19
2022-08-27T20:29:08.840Z,100401.22
2022-08-27T20:31:39.456Z,100397.56
2022-08-27T20:34:08.694Z,100398.44
2022-08-27T20:36:38.013Z,100395.66
2022-08-27T20:39:07.596Z,100393.84
2022-08-27T20:41:36.728Z,100392.97
2022-08-27T20:44:05.941Z,100400.06
2022-08-27T20:46:36.087Z,100391.16
2022-08-27T20:49:08.777Z,100389.41
2022-08-27T20:51:51.175Z,100395.75
2022-08-27T20:54:34.915Z,100393.28
2022-08-27T20:57:08.427Z,100399.91
2022-08-27T20:59:59.921Z,100394.09
2022-08-27T21:02:31.087Z,100401.47
2022-08-27T21:05:09.212Z,100408.03
2022-08-27T21:07:38.342Z,100403.34
2022-08-27T21:10:08.479Z,100391.69
2022-08-27T21:12:37.563Z,100386.31
2022-08-27T21:15:08.871Z,100390.34
2022-08-27T21:17:38.363Z,100397.16
2022-08-27T21:20:11.000Z,100395.13
2022-08-27T21:22:40.543Z,100382.75
2022-08-27T21:25:11.024Z,100376.53
2022-08-27T21:27:40.820Z,100385.91
2022-08-27T21:30:12.024Z,100382.47
2022-08-27T21:32:41.015Z,100387.66
2022-08-27T21:35:11.986Z,100385.91
2022-08-27T21:37:41.930Z,100392.25
2022-08-27T21:40:11.857Z,100393.31
2022-08-27T21:42:40.961Z,100394.28
2022-08-27T21:45:10.241Z,100397.63
2022-08-27T21:47:39.238Z,100385.91
2022-08-27T21:50:11.448Z,100396.66
2022-08-27T21:52:40.403Z,100388.34
2022-08-27T21:55:10.395Z,100388.22
2022-08-27T21:57:39.335Z,100392.53
2022-08-27T22:00:17.757Z,100387.94
2022-08-27T22:02:46.766Z,100391.50
2022-08-27T22:05:17.144Z,100390.72
2022-08-27T22:07:46.133Z,100394.00
2022-08-27T22:10:15.691Z,100390.63
2022-08-27T22:12:44.596Z,100390.63
2022-08-27T22:15:13.799Z,100391.59
2022-08-27T22:17:42.752Z,100387.25
2022-08-27T22:20:12.342Z,100386.22
2022-08-27T22:22:42.719Z,100388.13
2022-08-27T22:25:11.961Z,100382.75
2022-08-27T22:27:40.952Z,100385.53
2022-08-27T22:30:11.538Z,100382.75
2022-08-27T22:32:41.548Z,100386.31
2022-08-27T22:35:12.014Z,100384.47
2022-08-27T22:37:42.692Z,100387.94
2022-08-27T22:40:19.319Z,100384.69
2022-08-27T22:42:48.931Z,100389.84
2022-08-27T22:45:19.254Z,100387.47
2022-08-27T22:47:48.505Z,100383.53
2022-08-27T22:50:17.902Z,100382.56
2022-08-27T22:52:50.317Z,100387.25
2022-08-27T22:55:22.159Z,100386.59
2022-08-27T22:57:53.730Z,100388.13
2022-08-27T23:00:25.173Z,100381.41
2022-08-27T23:02:54.342Z,100389.66
2022-08-27T23:05:24.555Z,100385.34
2022-08-27T23:07:56.648Z,100394.28
2022-08-27T23:10:27.550Z,100398.31
2022-08-27T23:12:57.547Z,100394.53
2022-08-27T23:15:29.679Z,100251.97
2022-08-27T23:17:58.821Z,100393.75
2022-08-27T23:20:28.813Z,100393.03
2022-08-27T23:22:59.794Z,100396.66
2022-08-27T23:25:46.857Z,100398.09
2022-08-27T23:28:16.222Z,100336.09
2022-08-27T23:30:46.366Z,100400.28
2022-08-27T23:33:15.788Z,100390.69
2022-08-27T23:35:48.181Z,100400.22
2022-08-27T23:38:20.079Z,100398.16
2022-08-27T23:40:50.188Z,100398.16
2022-08-27T23:43:19.671Z,100400.84
2022-08-27T23:45:50.406Z,100405.28
2022-08-27T23:48:19.777Z,100405.53
2022-08-27T23:50:48.877Z,100402.66
2022-08-27T23:53:19.147Z,100405.66
2022-08-27T23:55:48.388Z,100407.94
2022-08-27T23:58:17.310Z,100406.19
